sensor_id;sensor_type;location;lat;lon;timestamp;P1;durP1;ratioP1;P2;durP2;ratioP2
12425;SDS011;6277;49.824;9.562;2023-09-07T00:00:59;1.42;;;1.20;;
12425;SDS011;6277;49.824;9.562;2023-09-07T00:03:26;1.88;;;1.25;;
12425;SDS011;6277;49.824;9.562;2023-09-07T00:05:51;3.50;;;1.40;;
12425;SDS011;6277;49.824;9.562;2023-09-07T00:08:17;2.72;;;1.60;;
12425;SDS011;6277;49.824;9.562;2023-09-07T00:10:42;1.45;;;1.20;;
12425;SDS011;6277;49.824;9.562;2023-09-07T00:13:08;1.73;;;1.30;;
12425;SDS011;6277;49.824;9.562;2023-09-07T00:15:37;1.45;;;1.23;;
12425;SDS011;6277;49.824;9.562;2023-09-07T00:18:03;1.45;;;1.25;;
12425;SDS011;6277;49.824;9.562;2023-09-07T00:20:29;1.42;;;1.15;;
12425;SDS011;6277;49.824;9.562;2023-09-07T00:22:55;2.42;;;1.48;;
12425;SDS011;6277;49.824;9.562;2023-09-07T00:25:21;2.45;;;1.48;;
12425;SDS011;6277;49.824;9.562;2023-09-07T00:27:46;1.60;;;1.40;;
12425;SDS011;6277;49.824;9.562;2023-09-07T00:30:12;3.97;;;1.45;;
12425;SDS011;6277;49.824;9.562;2023-09-07T00:32:38;3.03;;;1.40;;
12425;SDS011;6277;49.824;9.562;2023-09-07T00:35:04;2.78;;;1.42;;
12425;SDS011;6277;49.824;9.562;2023-09-07T00:37:30;1.67;;;1.30;;
12425;SDS011;6277;49.824;9.562;2023-09-07T00:39:56;1.90;;;1.15;;
12425;SDS011;6277;49.824;9.562;2023-09-07T00:42:22;1.77;;;1.13;;
12425;SDS011;6277;49.824;9.562;2023-09-07T00:44:47;1.30;;;1.17;;
12425;SDS011;6277;49.824;9.562;2023-09-07T00:47:13;1.98;;;1.35;;
12425;SDS011;6277;49.824;9.562;2023-09-07T00:49:42;3.83;;;1.50;;
12425;SDS011;6277;49.824;9.562;2023-09-07T00:52:08;2.33;;;1.48;;
12425;SDS011;6277;49.824;9.562;2023-09-07T00:54:37;2.03;;;1.30;;
12425;SDS011;6277;49.824;9.562;2023-09-07T00:57:06;1.60;;;1.20;;
12425;SDS011;6277;49.824;9.562;2023-09-07T00:59:32;1.50;;;1.27;;
12425;SDS011;6277;49.824;9.562;2023-09-07T01:01:58;2.00;;;1.60;;
12425;SDS011;6277;49.824;9.562;2023-09-07T01:04:24;1.35;;;1.25;;
12425;SDS011;6277;49.824;9.562;2023-09-07T01:06:56;1.85;;;1.35;;
12425;SDS011;6277;49.824;9.562;2023-09-07T01:09:26;2.38;;;1.60;;
12425;SDS011;6277;49.824;9.562;2023-09-07T01:11:55;1.98;;;1.63;;
12425;SDS011;6277;49.824;9.562;2023-09-07T01:14:20;1.67;;;1.50;;
12425;SDS011;6277;49.824;9.562;2023-09-07T01:16:47;1.73;;;1.42;;
12425;SDS011;6277;49.824;9.562;2023-09-07T01:19:13;2.53;;;1.50;;
12425;SDS011;6277;49.824;9.562;2023-09-07T01:21:39;2.03;;;1.50;;
12425;SDS011;6277;49.824;9.562;2023-09-07T01:24:08;1.73;;;1.42;;
12425;SDS011;6277;49.824;9.562;2023-09-07T01:26:35;2.63;;;1.60;;
12425;SDS011;6277;49.824;9.562;2023-09-07T01:29:04;2.65;;;1.48;;
12425;SDS011;6277;49.824;9.562;2023-09-07T01:31:34;1.42;;;1.20;;
12425;SDS011;6277;49.824;9.562;2023-09-07T01:34:00;1.73;;;1.30;;
12425;SDS011;6277;49.824;9.562;2023-09-07T01:36:26;2.42;;;1.50;;
12425;SDS011;6277;49.824;9.562;2023-09-07T01:38:51;1.70;;;1.42;;
12425;SDS011;6277;49.824;9.562;2023-09-07T01:41:17;2.60;;;1.52;;
12425;SDS011;6277;49.824;9.562;2023-09-07T01:43:42;3.65;;;1.40;;
12425;SDS011;6277;49.824;9.562;2023-09-07T01:46:08;1.77;;;1.52;;
12425;SDS011;6277;49.824;9.562;2023-09-07T01:48:34;3.53;;;1.90;;
12425;SDS011;6277;49.824;9.562;2023-09-07T01:51:00;2.40;;;1.55;;
12425;SDS011;6277;49.824;9.562;2023-09-07T01:53:25;2.03;;;1.60;;
12425;SDS011;6277;49.824;9.562;2023-09-07T01:55:53;2.00;;;1.70;;
12425;SDS011;6277;49.824;9.562;2023-09-07T01:58:20;1.92;;;1.55;;
12425;SDS011;6277;49.824;9.562;2023-09-07T02:00:46;1.58;;;1.48;;
12425;SDS011;6277;49.824;9.562;2023-09-07T02:03:12;1.95;;;1.52;;
12425;SDS011;6277;49.824;9.562;2023-09-07T02:05:38;2.08;;;1.50;;
12425;SDS011;6277;49.824;9.562;2023-09-07T02:08:04;1.92;;;1.40;;
12425;SDS011;6277;49.824;9.562;2023-09-07T02:10:30;2.05;;;1.42;;
12425;SDS011;6277;49.824;9.562;2023-09-07T02:12:55;3.60;;;1.70;;
12425;SDS011;6277;49.824;9.562;2023-09-07T02:15:22;2.08;;;1.30;;
12425;SDS011;6277;49.824;9.562;2023-09-07T02:17:48;2.20;;;1.52;;
12425;SDS011;6277;49.824;9.562;2023-09-07T02:20:14;1.50;;;1.38;;
12425;SDS011;6277;49.824;9.562;2023-09-07T02:22:39;2.42;;;1.60;;
12425;SDS011;6277;49.824;9.562;2023-09-07T02:25:05;1.83;;;1.42;;
12425;SDS011;6277;49.824;9.562;2023-09-07T02:27:32;2.10;;;1.58;;
12425;SDS011;6277;49.824;9.562;2023-09-07T02:29:58;1.80;;;1.48;;
12425;SDS011;6277;49.824;9.562;2023-09-07T02:32:23;1.70;;;1.45;;
12425;SDS011;6277;49.824;9.562;2023-09-07T02:34:49;3.03;;;1.50;;
12425;SDS011;6277;49.824;9.562;2023-09-07T02:37:14;2.17;;;1.60;;
12425;SDS011;6277;49.824;9.562;2023-09-07T02:39:41;3.00;;;1.88;;
12425;SDS011;6277;49.824;9.562;2023-09-07T02:42:07;2.17;;;1.88;;
12425;SDS011;6277;49.824;9.562;2023-09-07T02:44:32;2.08;;;1.55;;
12425;SDS011;6277;49.824;9.562;2023-09-07T02:46:58;3.03;;;1.63;;
12425;SDS011;6277;49.824;9.562;2023-09-07T02:49:23;2.55;;;1.60;;
12425;SDS011;6277;49.824;9.562;2023-09-07T02:51:49;1.80;;;1.55;;
12425;SDS011;6277;49.824;9.562;2023-09-07T02:54:14;1.83;;;1.40;;
12425;SDS011;6277;49.824;9.562;2023-09-07T02:56:40;2.00;;;1.50;;
12425;SDS011;6277;49.824;9.562;2023-09-07T02:59:05;2.50;;;1.70;;
12425;SDS011;6277;49.824;9.562;2023-09-07T03:01:31;2.20;;;1.90;;
12425;SDS011;6277;49.824;9.562;2023-09-07T03:03:56;1.90;;;1.70;;
12425;SDS011;6277;49.824;9.562;2023-09-07T03:06:22;3.50;;;1.88;;
12425;SDS011;6277;49.824;9.562;2023-09-07T03:08:47;4.75;;;1.90;;
12425;SDS011;6277;49.824;9.562;2023-09-07T03:11:13;3.05;;;1.67;;
12425;SDS011;6277;49.824;9.562;2023-09-07T03:13:39;2.08;;;1.73;;
12425;SDS011;6277;49.824;9.562;2023-09-07T03:16:04;1.98;;;1.77;;
12425;SDS011;6277;49.824;9.562;2023-09-07T03:18:30;2.15;;;1.63;;
12425;SDS011;6277;49.824;9.562;2023-09-07T03:20:58;2.95;;;1.88;;
12425;SDS011;6277;49.824;9.562;2023-09-07T03:23:24;3.28;;;1.73;;
12425;SDS011;6277;49.824;9.562;2023-09-07T03:25:50;1.90;;;1.55;;
12425;SDS011;6277;49.824;9.562;2023-09-07T03:28:16;2.78;;;1.70;;
12425;SDS011;6277;49.824;9.562;2023-09-07T03:30:41;2.63;;;1.75;;
12425;SDS011;6277;49.824;9.562;2023-09-07T03:33:07;2.00;;;1.70;;
12425;SDS011;6277;49.824;9.562;2023-09-07T03:35:32;2.13;;;1.73;;
12425;SDS011;6277;49.824;9.562;2023-09-07T03:37:58;2.25;;;2.00;;
12425;SDS011;6277;49.824;9.562;2023-09-07T03:40:24;3.10;;;2.05;;
12425;SDS011;6277;49.824;9.562;2023-09-07T03:42:49;2.67;;;1.95;;
12425;SDS011;6277;49.824;9.562;2023-09-07T03:45:15;2.85;;;1.85;;
12425;SDS011;6277;49.824;9.562;2023-09-07T03:47:41;2.03;;;1.80;;
12425;SDS011;6277;49.824;9.562;2023-09-07T03:50:07;2.60;;;1.90;;
12425;SDS011;6277;49.824;9.562;2023-09-07T03:52:33;3.00;;;2.00;;
12425;SDS011;6277;49.824;9.562;2023-09-07T03:54:59;2.15;;;1.88;;
12425;SDS011;6277;49.824;9.562;2023-09-07T03:57:26;3.00;;;2.00;;
12425;SDS011;6277;49.824;9.562;2023-09-07T03:59:52;2.92;;;2.10;;
12425;SDS011;6277;49.824;9.562;2023-09-07T04:02:20;3.28;;;2.13;;
12425;SDS011;6277;49.824;9.562;2023-09-07T04:04:49;4.78;;;2.20;;
12425;SDS011;6277;49.824;9.562;2023-09-07T04:07:16;2.75;;;2.08;;
12425;SDS011;6277;49.824;9.562;2023-09-07T04:09:42;2.17;;;1.73;;
12425;SDS011;6277;49.824;9.562;2023-09-07T04:12:08;3.13;;;2.22;;
12425;SDS011;6277;49.824;9.562;2023-09-07T04:14:34;2.38;;;1.88;;
12425;SDS011;6277;49.824;9.562;2023-09-07T04:17:00;2.38;;;2.00;;
12425;SDS011;6277;49.824;9.562;2023-09-07T04:19:26;2.45;;;2.05;;
12425;SDS011;6277;49.824;9.562;2023-09-07T04:21:52;2.38;;;1.65;;
12425;SDS011;6277;49.824;9.562;2023-09-07T04:24:18;3.05;;;2.08;;
12425;SDS011;6277;49.824;9.562;2023-09-07T04:26:44;3.33;;;1.90;;
12425;SDS011;6277;49.824;9.562;2023-09-07T04:29:09;2.45;;;1.80;;
12425;SDS011;6277;49.824;9.562;2023-09-07T04:31:37;2.53;;;1.80;;
12425;SDS011;6277;49.824;9.562;2023-09-07T04:34:02;1.98;;;1.70;;
12425;SDS011;6277;49.824;9.562;2023-09-07T04:36:28;2.00;;;1.80;;
12425;SDS011;6277;49.824;9.562;2023-09-07T04:38:53;3.65;;;1.90;;
12425;SDS011;6277;49.824;9.562;2023-09-07T04:41:19;2.22;;;1.90;;
12425;SDS011;6277;49.824;9.562;2023-09-07T04:43:44;3.10;;;2.10;;
12425;SDS011;6277;49.824;9.562;2023-09-07T04:46:10;4.35;;;2.00;;
12425;SDS011;6277;49.824;9.562;2023-09-07T04:48:39;2.65;;;1.90;;
12425;SDS011;6277;49.824;9.562;2023-09-07T04:51:06;3.78;;;2.33;;
12425;SDS011;6277;49.824;9.562;2023-09-07T04:53:34;4.32;;;2.33;;
12425;SDS011;6277;49.824;9.562;2023-09-07T04:56:01;2.45;;;2.22;;
12425;SDS011;6277;49.824;9.562;2023-09-07T04:58:27;4.60;;;2.90;;
12425;SDS011;6277;49.824;9.562;2023-09-07T05:00:53;2.65;;;2.05;;
12425;SDS011;6277;49.824;9.562;2023-09-07T05:03:18;2.95;;;2.33;;
12425;SDS011;6277;49.824;9.562;2023-09-07T05:05:44;3.88;;;2.10;;
12425;SDS011;6277;49.824;9.562;2023-09-07T05:08:15;2.83;;;2.00;;
12425;SDS011;6277;49.824;9.562;2023-09-07T05:10:41;3.85;;;1.90;;
12425;SDS011;6277;49.824;9.562;2023-09-07T05:13:07;2.58;;;1.90;;
12425;SDS011;6277;49.824;9.562;2023-09-07T05:15:32;2.70;;;2.15;;
12425;SDS011;6277;49.824;9.562;2023-09-07T05:17:58;2.95;;;2.00;;
12425;SDS011;6277;49.824;9.562;2023-09-07T05:20:23;2.40;;;1.90;;
12425;SDS011;6277;49.824;9.562;2023-09-07T05:22:49;2.70;;;2.20;;
12425;SDS011;6277;49.824;9.562;2023-09-07T05:25:15;2.40;;;2.10;;
12425;SDS011;6277;49.824;9.562;2023-09-07T05:27:41;4.18;;;2.28;;
12425;SDS011;6277;49.824;9.562;2023-09-07T05:30:06;6.07;;;2.65;;
12425;SDS011;6277;49.824;9.562;2023-09-07T05:32:32;3.05;;;2.30;;
12425;SDS011;6277;49.824;9.562;2023-09-07T05:34:58;3.47;;;2.35;;
12425;SDS011;6277;49.824;9.562;2023-09-07T05:37:23;2.40;;;2.10;;
12425;SDS011;6277;49.824;9.562;2023-09-07T05:39:49;3.45;;;2.15;;
12425;SDS011;6277;49.824;9.562;2023-09-07T05:42:15;2.05;;;1.83;;
12425;SDS011;6277;49.824;9.562;2023-09-07T05:44:41;2.67;;;1.98;;
12425;SDS011;6277;49.824;9.562;2023-09-07T05:47:06;2.58;;;2.10;;
12425;SDS011;6277;49.824;9.562;2023-09-07T05:49:32;2.30;;;2.10;;
12425;SDS011;6277;49.824;9.562;2023-09-07T05:51:57;2.20;;;2.00;;
12425;SDS011;6277;49.824;9.562;2023-09-07T05:54:23;2.75;;;2.05;;
12425;SDS011;6277;49.824;9.562;2023-09-07T05:56:48;8.35;;;2.90;;
12425;SDS011;6277;49.824;9.562;2023-09-07T05:59:14;2.83;;;2.20;;
12425;SDS011;6277;49.824;9.562;2023-09-07T06:01:40;5.90;;;1.98;;
12425;SDS011;6277;49.824;9.562;2023-09-07T06:04:06;3.10;;;2.15;;
12425;SDS011;6277;49.824;9.562;2023-09-07T06:06:32;2.95;;;2.17;;
12425;SDS011;6277;49.824;9.562;2023-09-07T06:08:57;4.18;;;2.38;;
12425;SDS011;6277;49.824;9.562;2023-09-07T06:11:24;3.10;;;2.40;;
12425;SDS011;6277;49.824;9.562;2023-09-07T06:13:50;3.30;;;2.47;;
12425;SDS011;6277;49.824;9.562;2023-09-07T06:16:15;2.53;;;2.33;;
12425;SDS011;6277;49.824;9.562;2023-09-07T06:18:41;3.10;;;2.25;;
12425;SDS011;6277;49.824;9.562;2023-09-07T06:21:07;3.13;;;2.20;;
12425;SDS011;6277;49.824;9.562;2023-09-07T06:23:32;4.70;;;2.28;;
12425;SDS011;6277;49.824;9.562;2023-09-07T06:25:58;3.47;;;2.60;;
12425;SDS011;6277;49.824;9.562;2023-09-07T06:28:24;2.67;;;2.20;;
12425;SDS011;6277;49.824;9.562;2023-09-07T06:30:50;2.58;;;2.28;;
12425;SDS011;6277;49.824;9.562;2023-09-07T06:33:15;2.92;;;2.45;;
12425;SDS011;6277;49.824;9.562;2023-09-07T06:35:42;3.97;;;2.55;;
12425;SDS011;6277;49.824;9.562;2023-09-07T06:38:07;3.40;;;2.72;;
12425;SDS011;6277;49.824;9.562;2023-09-07T06:40:33;4.68;;;2.53;;
12425;SDS011;6277;49.824;9.562;2023-09-07T06:42:58;2.78;;;2.42;;
12425;SDS011;6277;49.824;9.562;2023-09-07T06:45:25;2.88;;;2.58;;
12425;SDS011;6277;49.824;9.562;2023-09-07T06:47:50;3.50;;;2.78;;
12425;SDS011;6277;49.824;9.562;2023-09-07T06:50:16;3.75;;;2.85;;
12425;SDS011;6277;49.824;9.562;2023-09-07T06:52:42;2.78;;;2.58;;
12425;SDS011;6277;49.824;9.562;2023-09-07T06:55:07;2.90;;;2.40;;
12425;SDS011;6277;49.824;9.562;2023-09-07T06:57:33;3.08;;;2.53;;
12425;SDS011;6277;49.824;9.562;2023-09-07T06:59:59;2.92;;;2.55;;
12425;SDS011;6277;49.824;9.562;2023-09-07T07:02:24;3.30;;;2.65;;
12425;SDS011;6277;49.824;9.562;2023-09-07T07:04:50;3.22;;;2.65;;
12425;SDS011;6277;49.824;9.562;2023-09-07T07:07:16;2.88;;;2.40;;
12425;SDS011;6277;49.824;9.562;2023-09-07T07:09:42;3.50;;;2.53;;
12425;SDS011;6277;49.824;9.562;2023-09-07T07:12:08;2.70;;;2.47;;
12425;SDS011;6277;49.824;9.562;2023-09-07T07:14:34;3.20;;;2.78;;
12425;SDS011;6277;49.824;9.562;2023-09-07T07:16:59;3.13;;;2.75;;
12425;SDS011;6277;49.824;9.562;2023-09-07T07:19:28;2.83;;;2.53;;
12425;SDS011;6277;49.824;9.562;2023-09-07T07:21:54;3.03;;;2.60;;
12425;SDS011;6277;49.824;9.562;2023-09-07T07:24:19;3.00;;;2.70;;
12425;SDS011;6277;49.824;9.562;2023-09-07T07:26:45;3.03;;;2.60;;
12425;SDS011;6277;49.824;9.562;2023-09-07T07:29:11;2.97;;;2.60;;
12425;SDS011;6277;49.824;9.562;2023-09-07T07:31:37;2.58;;;2.38;;
12425;SDS011;6277;49.824;9.562;2023-09-07T07:34:03;2.58;;;2.38;;
12425;SDS011;6277;49.824;9.562;2023-09-07T07:36:28;2.97;;;2.50;;
12425;SDS011;6277;49.824;9.562;2023-09-07T07:38:54;2.90;;;2.60;;
12425;SDS011;6277;49.824;9.562;2023-09-07T07:41:20;2.88;;;2.47;;
12425;SDS011;6277;49.824;9.562;2023-09-07T07:43:45;3.90;;;2.60;;
12425;SDS011;6277;49.824;9.562;2023-09-07T07:46:11;3.00;;;2.55;;
12425;SDS011;6277;49.824;9.562;2023-09-07T07:48:36;3.92;;;2.50;;
12425;SDS011;6277;49.824;9.562;2023-09-07T07:51:02;2.45;;;2.25;;
12425;SDS011;6277;49.824;9.562;2023-09-07T07:53:31;2.45;;;2.10;;
12425;SDS011;6277;49.824;9.562;2023-09-07T07:55:57;2.88;;;2.58;;
12425;SDS011;6277;49.824;9.562;2023-09-07T07:58:23;3.60;;;2.40;;
12425;SDS011;6277;49.824;9.562;2023-09-07T08:00:48;2.78;;;2.50;;
12425;SDS011;6277;49.824;9.562;2023-09-07T08:03:14;3.95;;;2.30;;
12425;SDS011;6277;49.824;9.562;2023-09-07T08:05:40;8.98;;;3.28;;
12425;SDS011;6277;49.824;9.562;2023-09-07T08:08:06;4.40;;;2.90;;
12425;SDS011;6277;49.824;9.562;2023-09-07T08:10:33;3.45;;;2.60;;
12425;SDS011;6277;49.824;9.562;2023-09-07T08:13:02;4.10;;;2.65;;
12425;SDS011;6277;49.824;9.562;2023-09-07T08:15:29;2.80;;;2.60;;
12425;SDS011;6277;49.824;9.562;2023-09-07T08:17:56;3.15;;;2.45;;
12425;SDS011;6277;49.824;9.562;2023-09-07T08:20:22;3.97;;;2.50;;
12425;SDS011;6277;49.824;9.562;2023-09-07T08:22:48;3.95;;;2.58;;
12425;SDS011;6277;49.824;9.562;2023-09-07T08:25:13;3.10;;;2.50;;
12425;SDS011;6277;49.824;9.562;2023-09-07T08:27:42;3.75;;;2.70;;
12425;SDS011;6277;49.824;9.562;2023-09-07T08:30:10;2.88;;;2.58;;
12425;SDS011;6277;49.824;9.562;2023-09-07T08:32:43;5.90;;;2.72;;
12425;SDS011;6277;49.824;9.562;2023-09-07T08:35:10;4.57;;;2.70;;
12425;SDS011;6277;49.824;9.562;2023-09-07T08:37:40;3.15;;;2.53;;
12425;SDS011;6277;49.824;9.562;2023-09-07T08:40:06;4.90;;;2.67;;
12425;SDS011;6277;49.824;9.562;2023-09-07T08:42:32;4.75;;;2.80;;
12425;SDS011;6277;49.824;9.562;2023-09-07T08:45:01;2.85;;;2.05;;
12425;SDS011;6277;49.824;9.562;2023-09-07T08:47:31;3.50;;;2.50;;
12425;SDS011;6277;49.824;9.562;2023-09-07T08:50:01;4.38;;;2.55;;
12425;SDS011;6277;49.824;9.562;2023-09-07T08:52:27;2.53;;;2.28;;
12425;SDS011;6277;49.824;9.562;2023-09-07T08:54:53;2.70;;;2.30;;
12425;SDS011;6277;49.824;9.562;2023-09-07T08:57:20;3.10;;;2.72;;
12425;SDS011;6277;49.824;9.562;2023-09-07T08:59:46;3.30;;;2.38;;
12425;SDS011;6277;49.824;9.562;2023-09-07T09:02:13;2.67;;;2.40;;
12425;SDS011;6277;49.824;9.562;2023-09-07T09:04:38;2.67;;;2.47;;
12425;SDS011;6277;49.824;9.562;2023-09-07T09:07:04;2.50;;;2.30;;
12425;SDS011;6277;49.824;9.562;2023-09-07T09:09:30;4.95;;;2.67;;
12425;SDS011;6277;49.824;9.562;2023-09-07T09:12:06;2.47;;;2.25;;
12425;SDS011;6277;49.824;9.562;2023-09-07T09:14:35;2.60;;;2.40;;
12425;SDS011;6277;49.824;9.562;2023-09-07T09:17:01;2.65;;;2.30;;
12425;SDS011;6277;49.824;9.562;2023-09-07T09:19:30;2.95;;;2.30;;
12425;SDS011;6277;49.824;9.562;2023-09-07T09:22:00;2.85;;;2.33;;
12425;SDS011;6277;49.824;9.562;2023-09-07T09:24:26;3.05;;;2.20;;
12425;SDS011;6277;49.824;9.562;2023-09-07T09:26:51;3.40;;;2.08;;
12425;SDS011;6277;49.824;9.562;2023-09-07T09:29:21;2.58;;;2.35;;
12425;SDS011;6277;49.824;9.562;2023-09-07T09:31:48;2.58;;;2.38;;
12425;SDS011;6277;49.824;9.562;2023-09-07T09:34:13;4.45;;;2.22;;
12425;SDS011;6277;49.824;9.562;2023-09-07T09:36:41;2.85;;;2.20;;
12425;SDS011;6277;49.824;9.562;2023-09-07T09:39:08;4.13;;;2.42;;
12425;SDS011;6277;49.824;9.562;2023-09-07T09:41:34;4.38;;;2.28;;
12425;SDS011;6277;49.824;9.562;2023-09-07T09:44:04;3.00;;;2.10;;
12425;SDS011;6277;49.824;9.562;2023-09-07T09:46:31;2.83;;;2.17;;
12425;SDS011;6277;49.824;9.562;2023-09-07T09:48:57;2.78;;;2.28;;
12425;SDS011;6277;49.824;9.562;2023-09-07T09:51:23;2.50;;;2.20;;
12425;SDS011;6277;49.824;9.562;2023-09-07T09:53:50;2.47;;;2.28;;
12425;SDS011;6277;49.824;9.562;2023-09-07T09:56:16;2.38;;;2.10;;
12425;SDS011;6277;49.824;9.562;2023-09-07T09:58:42;2.67;;;2.30;;
12425;SDS011;6277;49.824;9.562;2023-09-07T10:01:08;3.28;;;2.30;;
12425;SDS011;6277;49.824;9.562;2023-09-07T10:03:40;2.83;;;2.53;;
12425;SDS011;6277;49.824;9.562;2023-09-07T10:06:28;4.95;;;2.33;;
12425;SDS011;6277;49.824;9.562;2023-09-07T10:08:55;4.50;;;2.42;;
12425;SDS011;6277;49.824;9.562;2023-09-07T10:11:35;3.03;;;2.08;;
12425;SDS011;6277;49.824;9.562;2023-09-07T10:14:04;2.30;;;2.10;;
12425;SDS011;6277;49.824;9.562;2023-09-07T10:16:42;2.65;;;2.10;;
12425;SDS011;6277;49.824;9.562;2023-09-07T10:19:15;3.20;;;2.50;;
12425;SDS011;6277;49.824;9.562;2023-09-07T10:21:42;3.58;;;2.05;;
12425;SDS011;6277;49.824;9.562;2023-09-07T10:24:08;2.55;;;2.15;;
12425;SDS011;6277;49.824;9.562;2023-09-07T10:26:34;4.90;;;2.15;;
12425;SDS011;6277;49.824;9.562;2023-09-07T10:28:59;2.92;;;2.22;;
12425;SDS011;6277;49.824;9.562;2023-09-07T10:31:27;3.75;;;2.10;;
12425;SDS011;6277;49.824;9.562;2023-09-07T10:33:55;2.22;;;2.00;;
12425;SDS011;6277;49.824;9.562;2023-09-07T10:36:21;2.13;;;1.92;;
12425;SDS011;6277;49.824;9.562;2023-09-07T10:38:48;2.78;;;2.10;;
12425;SDS011;6277;49.824;9.562;2023-09-07T10:41:13;3.30;;;2.20;;
12425;SDS011;6277;49.824;9.562;2023-09-07T10:43:46;2.20;;;2.00;;
12425;SDS011;6277;49.824;9.562;2023-09-07T10:46:20;2.22;;;1.95;;
12425;SDS011;6277;49.824;9.562;2023-09-07T10:48:50;2.10;;;1.90;;
12425;SDS011;6277;49.824;9.562;2023-09-07T10:51:17;2.47;;;1.85;;
12425;SDS011;6277;49.824;9.562;2023-09-07T10:53:43;3.47;;;2.20;;
12425;SDS011;6277;49.824;9.562;2023-09-07T10:56:09;6.15;;;1.88;;
12425;SDS011;6277;49.824;9.562;2023-09-07T10:58:36;3.08;;;2.20;;
12425;SDS011;6277;49.824;9.562;2023-09-07T11:01:07;2.35;;;1.80;;
12425;SDS011;6277;49.824;9.562;2023-09-07T11:03:33;2.55;;;1.98;;
12425;SDS011;6277;49.824;9.562;2023-09-07T11:06:17;3.03;;;1.90;;
12425;SDS011;6277;49.824;9.562;2023-09-07T11:08:48;2.10;;;1.83;;
12425;SDS011;6277;49.824;9.562;2023-09-07T11:11:13;2.85;;;1.90;;
12425;SDS011;6277;49.824;9.562;2023-09-07T11:13:39;2.08;;;1.88;;
12425;SDS011;6277;49.824;9.562;2023-09-07T11:16:08;3.75;;;1.75;;
12425;SDS011;6277;49.824;9.562;2023-09-07T11:18:35;8.23;;;2.13;;
12425;SDS011;6277;49.824;9.562;2023-09-07T11:21:01;2.35;;;2.00;;
12425;SDS011;6277;49.824;9.562;2023-09-07T11:23:29;3.50;;;2.03;;
12425;SDS011;6277;49.824;9.562;2023-09-07T11:25:56;1.90;;;1.80;;
12425;SDS011;6277;49.824;9.562;2023-09-07T11:28:23;2.53;;;1.90;;
12425;SDS011;6277;49.824;9.562;2023-09-07T11:30:53;1.83;;;1.70;;
12425;SDS011;6277;49.824;9.562;2023-09-07T11:33:20;2.17;;;1.98;;
12425;SDS011;6277;49.824;9.562;2023-09-07T11:35:49;1.90;;;1.70;;
12425;SDS011;6277;49.824;9.562;2023-09-07T11:38:15;2.00;;;1.88;;
12425;SDS011;6277;49.824;9.562;2023-09-07T11:40:42;2.85;;;2.08;;
12425;SDS011;6277;49.824;9.562;2023-09-07T11:43:16;2.45;;;2.25;;
12425;SDS011;6277;49.824;9.562;2023-09-07T11:45:45;2.10;;;1.90;;
12425;SDS011;6277;49.824;9.562;2023-09-07T11:48:11;3.47;;;2.10;;
12425;SDS011;6277;49.824;9.562;2023-09-07T11:50:37;2.50;;;1.90;;
12425;SDS011;6277;49.824;9.562;2023-09-07T11:53:03;1.92;;;1.80;;
12425;SDS011;6277;49.824;9.562;2023-09-07T11:55:29;2.92;;;1.90;;
12425;SDS011;6277;49.824;9.562;2023-09-07T11:57:55;1.70;;;1.60;;
12425;SDS011;6277;49.824;9.562;2023-09-07T12:00:21;2.10;;;1.90;;
12425;SDS011;6277;49.824;9.562;2023-09-07T12:02:47;2.33;;;1.83;;
12425;SDS011;6277;49.824;9.562;2023-09-07T12:05:13;1.75;;;1.63;;
12425;SDS011;6277;49.824;9.562;2023-09-07T12:07:40;2.47;;;1.80;;
12425;SDS011;6277;49.824;9.562;2023-09-07T12:10:08;2.15;;;1.58;;
12425;SDS011;6277;49.824;9.562;2023-09-07T12:12:36;1.90;;;1.70;;
12425;SDS011;6277;49.824;9.562;2023-09-07T12:15:02;2.28;;;1.95;;
12425;SDS011;6277;49.824;9.562;2023-09-07T12:17:28;2.75;;;1.60;;
12425;SDS011;6277;49.824;9.562;2023-09-07T12:19:54;2.40;;;1.60;;
12425;SDS011;6277;49.824;9.562;2023-09-07T12:22:20;2.00;;;1.80;;
12425;SDS011;6277;49.824;9.562;2023-09-07T12:24:45;2.78;;;1.63;;
12425;SDS011;6277;49.824;9.562;2023-09-07T12:27:11;1.83;;;1.50;;
12425;SDS011;6277;49.824;9.562;2023-09-07T12:29:36;2.55;;;1.60;;
12425;SDS011;6277;49.824;9.562;2023-09-07T12:32:02;2.05;;;1.70;;
12425;SDS011;6277;49.824;9.562;2023-09-07T12:34:28;1.73;;;1.60;;
12425;SDS011;6277;49.824;9.562;2023-09-07T12:36:53;1.70;;;1.48;;
12425;SDS011;6277;49.824;9.562;2023-09-07T12:39:19;1.52;;;1.42;;
12425;SDS011;6277;49.824;9.562;2023-09-07T12:41:44;1.60;;;1.50;;
12425;SDS011;6277;49.824;9.562;2023-09-07T12:44:10;1.85;;;1.45;;
12425;SDS011;6277;49.824;9.562;2023-09-07T12:46:35;1.92;;;1.58;;
12425;SDS011;6277;49.824;9.562;2023-09-07T12:49:02;2.15;;;1.63;;
12425;SDS011;6277;49.824;9.562;2023-09-07T12:51:28;1.58;;;1.40;;
12425;SDS011;6277;49.824;9.562;2023-09-07T12:53:53;2.00;;;1.80;;
12425;SDS011;6277;49.824;9.562;2023-09-07T12:56:19;2.60;;;1.40;;
12425;SDS011;6277;49.824;9.562;2023-09-07T12:58:44;11.25;;;2.10;;
12425;SDS011;6277;49.824;9.562;2023-09-07T13:01:10;2.10;;;1.90;;
12425;SDS011;6277;49.824;9.562;2023-09-07T13:03:40;1.65;;;1.45;;
12425;SDS011;6277;49.824;9.562;2023-09-07T13:06:05;1.85;;;1.42;;
12425;SDS011;6277;49.824;9.562;2023-09-07T13:08:31;2.67;;;1.50;;
12425;SDS011;6277;49.824;9.562;2023-09-07T13:10:56;2.13;;;1.80;;
12425;SDS011;6277;49.824;9.562;2023-09-07T13:13:22;2.95;;;1.50;;
12425;SDS011;6277;49.824;9.562;2023-09-07T13:15:50;2.38;;;1.40;;
12425;SDS011;6277;49.824;9.562;2023-09-07T13:18:16;4.50;;;1.63;;
12425;SDS011;6277;49.824;9.562;2023-09-07T13:20:42;1.98;;;1.40;;
12425;SDS011;6277;49.824;9.562;2023-09-07T13:23:07;1.70;;;1.50;;
12425;SDS011;6277;49.824;9.562;2023-09-07T13:25:33;1.40;;;1.30;;
12425;SDS011;6277;49.824;9.562;2023-09-07T13:27:58;2.30;;;1.77;;
12425;SDS011;6277;49.824;9.562;2023-09-07T13:30:24;1.70;;;1.42;;
12425;SDS011;6277;49.824;9.562;2023-09-07T13:32:50;2.72;;;1.67;;
12425;SDS011;6277;49.824;9.562;2023-09-07T13:35:15;2.10;;;1.70;;
12425;SDS011;6277;49.824;9.562;2023-09-07T13:37:41;1.90;;;1.48;;
12425;SDS011;6277;49.824;9.562;2023-09-07T13:40:07;1.65;;;1.40;;
12425;SDS011;6277;49.824;9.562;2023-09-07T13:42:33;1.75;;;1.42;;
12425;SDS011;6277;49.824;9.562;2023-09-07T13:44:59;2.28;;;1.55;;
12425;SDS011;6277;49.824;9.562;2023-09-07T13:47:24;3.40;;;1.95;;
12425;SDS011;6277;49.824;9.562;2023-09-07T13:49:50;2.00;;;1.45;;
12425;SDS011;6277;49.824;9.562;2023-09-07T13:52:15;2.47;;;1.30;;
12425;SDS011;6277;49.824;9.562;2023-09-07T13:54:41;1.65;;;1.42;;
12425;SDS011;6277;49.824;9.562;2023-09-07T13:57:07;2.05;;;1.50;;
12425;SDS011;6277;49.824;9.562;2023-09-07T13:59:33;3.55;;;1.50;;
12425;SDS011;6277;49.824;9.562;2023-09-07T14:01:59;3.20;;;1.40;;
12425;SDS011;6277;49.824;9.562;2023-09-07T14:04:25;1.67;;;1.42;;
12425;SDS011;6277;49.824;9.562;2023-09-07T14:06:51;2.22;;;1.50;;
12425;SDS011;6277;49.824;9.562;2023-09-07T14:09:17;3.30;;;1.50;;
12425;SDS011;6277;49.824;9.562;2023-09-07T14:11:43;2.35;;;1.73;;
12425;SDS011;6277;49.824;9.562;2023-09-07T14:14:09;2.30;;;1.58;;
12425;SDS011;6277;49.824;9.562;2023-09-07T14:16:35;3.50;;;1.67;;
12425;SDS011;6277;49.824;9.562;2023-09-07T14:19:01;2.15;;;1.60;;
12425;SDS011;6277;49.824;9.562;2023-09-07T14:21:26;1.80;;;1.52;;
12425;SDS011;6277;49.824;9.562;2023-09-07T14:23:52;1.70;;;1.40;;
12425;SDS011;6277;49.824;9.562;2023-09-07T14:26:17;3.95;;;1.77;;
12425;SDS011;6277;49.824;9.562;2023-09-07T14:28:43;2.55;;;1.60;;
12425;SDS011;6277;49.824;9.562;2023-09-07T14:31:08;2.10;;;1.63;;
12425;SDS011;6277;49.824;9.562;2023-09-07T14:33:34;1.80;;;1.52;;
12425;SDS011;6277;49.824;9.562;2023-09-07T14:36:04;2.00;;;1.63;;
12425;SDS011;6277;49.824;9.562;2023-09-07T14:38:31;1.92;;;1.60;;
12425;SDS011;6277;49.824;9.562;2023-09-07T14:40:59;2.55;;;1.48;;
12425;SDS011;6277;49.824;9.562;2023-09-07T14:43:25;1.85;;;1.70;;
12425;SDS011;6277;49.824;9.562;2023-09-07T14:45:51;2.30;;;1.95;;
12425;SDS011;6277;49.824;9.562;2023-09-07T14:48:17;2.03;;;1.63;;
12425;SDS011;6277;49.824;9.562;2023-09-07T14:50:42;2.80;;;1.60;;
12425;SDS011;6277;49.824;9.562;2023-09-07T14:53:08;2.05;;;1.50;;
12425;SDS011;6277;49.824;9.562;2023-09-07T14:55:34;1.40;;;1.30;;